sensor_id;sensor_type;location;lat;lon;timestamp;temperature;humidity
51655;DHT22;37732;53.106;7.030;2022-12-29T00:02:10;9.80;99.90
51655;DHT22;37732;53.106;7.030;2022-12-29T00:04:36;9.80;99.90
51655;DHT22;37732;53.106;7.030;2022-12-29T00:07:02;9.80;99.90
51655;DHT22;37732;53.106;7.030;2022-12-29T00:09:30;9.90;99.90
51655;DHT22;37732;53.106;7.030;2022-12-29T00:11:56;9.80;99.90
51655;DHT22;37732;53.106;7.030;2022-12-29T00:14:22;9.80;99.90
51655;DHT22;37732;53.106;7.030;2022-12-29T00:17:06;9.90;99.90
51655;DHT22;37732;53.106;7.030;2022-12-29T00:19:32;9.90;99.90
51655;DHT22;37732;53.106;7.030;2022-12-29T00:22:16;9.90;99.90
51655;DHT22;37732;53.106;7.030;2022-12-29T00:25:00;9.80;99.90
51655;DHT22;37732;53.106;7.030;2022-12-29T00:27:45;9.90;99.90
51655;DHT22;37732;53.106;7.030;2022-12-29T00:30:29;9.90;99.90
51655;DHT22;37732;53.106;7.030;2022-12-29T00:33:19;9.90;99.90
51655;DHT22;37732;53.106;7.030;2022-12-29T00:36:26;9.90;99.90
51655;DHT22;37732;53.106;7.030;2022-12-29T00:38:58;9.80;99.90
51655;DHT22;37732;53.106;7.030;2022-12-29T00:41:43;9.80;99.90
51655;DHT22;37732;53.106;7.030;2022-12-29T00:44:27;9.80;99.90
51655;DHT22;37732;53.106;7.030;2022-12-29T00:46:53;9.80;99.90
51655;DHT22;37732;53.106;7.030;2022-12-29T00:49:19;9.80;99.90
51655;DHT22;37732;53.106;7.030;2022-12-29T00:54:24;9.90;99.90
51655;DHT22;37732;53.106;7.030;2022-12-29T00:56:51;9.90;99.90
51655;DHT22;37732;53.106;7.030;2022-12-29T00:59:18;9.90;99.90
51655;DHT22;37732;53.106;7.030;2022-12-29T01:01:44;9.90;99.90
51655;DHT22;37732;53.106;7.030;2022-12-29T01:04:11;9.90;99.90
51655;DHT22;37732;53.106;7.030;2022-12-29T01:06:39;9.90;99.90
51655;DHT22;37732;53.106;7.030;2022-12-29T01:09:06;10.00;99.90
51655;DHT22;37732;53.106;7.030;2022-12-29T01:11:51;10.00;99.90
51655;DHT22;37732;53.106;7.030;2022-12-29T01:14:18;10.00;99.90
51655;DHT22;37732;53.106;7.030;2022-12-29T01:16:44;10.00;99.90
51655;DHT22;37732;53.106;7.030;2022-12-29T01:19:10;10.00;99.90
51655;DHT22;37732;53.106;7.030;2022-12-29T01:21:35;10.00;99.90
51655;DHT22;37732;53.106;7.030;2022-12-29T01:24:01;10.10;99.90
51655;DHT22;37732;53.106;7.030;2022-12-29T01:26:27;10.10;99.90
51655;DHT22;37732;53.106;7.030;2022-12-29T01:28:52;10.10;99.90
51655;DHT22;37732;53.106;7.030;2022-12-29T01:31:18;10.00;99.90
51655;DHT22;37732;53.106;7.030;2022-12-29T01:33:44;10.10;99.90
51655;DHT22;37732;53.106;7.030;2022-12-29T01:36:13;10.10;99.90
51655;DHT22;37732;53.106;7.030;2022-12-29T01:38:39;10.10;99.90
51655;DHT22;37732;53.106;7.030;2022-12-29T01:41:07;10.10;99.90
51655;DHT22;37732;53.106;7.030;2022-12-29T01:43:48;10.10;99.90
51655;DHT22;37732;53.106;7.030;2022-12-29T01:46:38;10.10;99.90
51655;DHT22;37732;53.106;7.030;2022-12-29T01:49:12;10.10;99.90
51655;DHT22;37732;53.106;7.030;2022-12-29T01:51:42;10.20;99.90
51655;DHT22;37732;53.106;7.030;2022-12-29T01:54:16;10.20;99.90
51655;DHT22;37732;53.106;7.030;2022-12-29T01:56:43;10.20;99.90
51655;DHT22;37732;53.106;7.030;2022-12-29T01:59:15;10.20;99.90
51655;DHT22;37732;53.106;7.030;2022-12-29T02:05:33;10.30;99.90
51655;DHT22;37732;53.106;7.030;2022-12-29T02:08:02;10.30;99.90
51655;DHT22;37732;53.106;7.030;2022-12-29T02:10:30;10.30;99.90
51655;DHT22;37732;53.106;7.030;2022-12-29T02:12:56;10.30;99.90
51655;DHT22;37732;53.106;7.030;2022-12-29T02:24:00;10.40;99.90
51655;DHT22;37732;53.106;7.030;2022-12-29T02:40:40;10.40;99.90
51655;DHT22;37732;53.106;7.030;2022-12-29T02:43:53;10.50;99.90
51655;DHT22;37732;53.106;7.030;2022-12-29T02:46:27;10.50;99.90
51655;DHT22;37732;53.106;7.030;2022-12-29T02:49:01;10.50;99.90
51655;DHT22;37732;53.106;7.030;2022-12-29T02:51:41;10.60;99.90
51655;DHT22;37732;53.106;7.030;2022-12-29T02:54:08;10.60;99.90
51655;DHT22;37732;53.106;7.030;2022-12-29T02:56:53;10.50;99.90
51655;DHT22;37732;53.106;7.030;2022-12-29T02:59:19;10.50;99.90
51655;DHT22;37732;53.106;7.030;2022-12-29T03:17:46;10.40;99.90
51655;DHT22;37732;53.106;7.030;2022-12-29T03:23:10;10.40;99.90
51655;DHT22;37732;53.106;7.030;2022-12-29T03:25:40;10.40;99.90
51655;DHT22;37732;53.106;7.030;2022-12-29T03:28:30;10.40;99.90
51655;DHT22;37732;53.106;7.030;2022-12-29T03:31:00;10.40;99.90
51655;DHT22;37732;53.106;7.030;2022-12-29T03:33:29;10.40;99.90
51655;DHT22;37732;53.106;7.030;2022-12-29T03:36:00;10.40;99.90
51655;DHT22;37732;53.106;7.030;2022-12-29T03:38:47;10.40;99.90
51655;DHT22;37732;53.106;7.030;2022-12-29T03:41:20;10.40;99.90
51655;DHT22;37732;53.106;7.030;2022-12-29T03:44:06;10.40;99.90
51655;DHT22;37732;53.106;7.030;2022-12-29T03:46:32;10.40;99.90
51655;DHT22;37732;53.106;7.030;2022-12-29T03:48:58;10.30;99.90
51655;DHT22;37732;53.106;7.030;2022-12-29T03:51:24;10.30;99.90
51655;DHT22;37732;53.106;7.030;2022-12-29T03:53:49;10.30;99.90
51655;DHT22;37732;53.106;7.030;2022-12-29T03:56:15;10.30;99.90
51655;DHT22;37732;53.106;7.030;2022-12-29T03:58:41;10.30;99.90
51655;DHT22;37732;53.106;7.030;2022-12-29T04:01:06;10.20;99.90
51655;DHT22;37732;53.106;7.030;2022-12-29T04:03:32;10.20;99.90
51655;DHT22;37732;53.106;7.030;2022-12-29T04:05:58;10.20;99.90
51655;DHT22;37732;53.106;7.030;2022-12-29T04:08:23;10.20;99.90
51655;DHT22;37732;53.106;7.030;2022-12-29T04:10:49;10.20;99.90
51655;DHT22;37732;53.106;7.030;2022-12-29T04:13:15;10.20;99.90
51655;DHT22;37732;53.106;7.030;2022-12-29T04:15:43;10.20;99.90
51655;DHT22;37732;53.106;7.030;2022-12-29T04:18:08;10.20;99.90
51655;DHT22;37732;53.106;7.030;2022-12-29T04:20:34;10.20;99.90
51655;DHT22;37732;53.106;7.030;2022-12-29T04:23:19;10.20;99.90
51655;DHT22;37732;53.106;7.030;2022-12-29T04:25:47;10.20;99.90
51655;DHT22;37732;53.106;7.030;2022-12-29T04:28:14;10.20;99.90
51655;DHT22;37732;53.106;7.030;2022-12-29T04:30:41;10.20;99.90
51655;DHT22;37732;53.106;7.030;2022-12-29T04:33:07;10.10;99.90
51655;DHT22;37732;53.106;7.030;2022-12-29T04:35:33;10.10;99.90
51655;DHT22;37732;53.106;7.030;2022-12-29T04:37:58;10.10;99.90
51655;DHT22;37732;53.106;7.030;2022-12-29T04:40:24;10.10;99.90
51655;DHT22;37732;53.106;7.030;2022-12-29T04:42:52;10.10;99.90
51655;DHT22;37732;53.106;7.030;2022-12-29T04:45:18;10.10;99.90
51655;DHT22;37732;53.106;7.030;2022-12-29T04:47:44;10.10;99.90
51655;DHT22;37732;53.106;7.030;2022-12-29T04:50:10;10.10;99.90
51655;DHT22;37732;53.106;7.030;2022-12-29T04:52:35;10.10;99.90
51655;DHT22;37732;53.106;7.030;2022-12-29T04:55:02;10.10;99.90
51655;DHT22;37732;53.106;7.030;2022-12-29T04:57:28;10.00;99.90
51655;DHT22;37732;53.106;7.030;2022-12-29T04:59:54;9.90;99.90
51655;DHT22;37732;53.106;7.030;2022-12-29T05:02:19;9.90;99.90
51655;DHT22;37732;53.106;7.030;2022-12-29T05:04:45;9.80;99.90
51655;DHT22;37732;53.106;7.030;2022-12-29T05:07:11;9.80;99.90
51655;DHT22;37732;53.106;7.030;2022-12-29T05:09:37;9.70;99.90
51655;DHT22;37732;53.106;7.030;2022-12-29T05:12:03;9.70;99.90
51655;DHT22;37732;53.106;7.030;2022-12-29T05:14:29;9.60;99.90
51655;DHT22;37732;53.106;7.030;2022-12-29T05:16:55;9.70;99.90
51655;DHT22;37732;53.106;7.030;2022-12-29T05:19:20;9.60;99.90
51655;DHT22;37732;53.106;7.030;2022-12-29T05:21:46;9.60;99.90
51655;DHT22;37732;53.106;7.030;2022-12-29T05:24:12;9.60;99.90
51655;DHT22;37732;53.106;7.030;2022-12-29T05:26:38;9.60;99.90
51655;DHT22;37732;53.106;7.030;2022-12-29T05:29:03;9.60;99.90
51655;DHT22;37732;53.106;7.030;2022-12-29T05:31:29;9.60;99.90
51655;DHT22;37732;53.106;7.030;2022-12-29T05:33:55;9.60;99.90
51655;DHT22;37732;53.106;7.030;2022-12-29T05:36:20;9.60;99.90
51655;DHT22;37732;53.106;7.030;2022-12-29T05:38:46;9.60;99.90
51655;DHT22;37732;53.106;7.030;2022-12-29T05:41:12;9.60;99.90
51655;DHT22;37732;53.106;7.030;2022-12-29T05:43:38;9.60;99.90
51655;DHT22;37732;53.106;7.030;2022-12-29T05:46:03;9.50;99.90
51655;DHT22;37732;53.106;7.030;2022-12-29T05:48:29;9.50;99.90
51655;DHT22;37732;53.106;7.030;2022-12-29T05:50:55;9.50;99.90
51655;DHT22;37732;53.106;7.030;2022-12-29T05:53:21;9.40;99.90
51655;DHT22;37732;53.106;7.030;2022-12-29T05:55:47;9.40;99.90
51655;DHT22;37732;53.106;7.030;2022-12-29T05:58:14;9.40;99.90
51655;DHT22;37732;53.106;7.030;2022-12-29T06:00:40;9.30;99.90
51655;DHT22;37732;53.106;7.030;2022-12-29T06:03:05;9.30;99.90
51655;DHT22;37732;53.106;7.030;2022-12-29T06:05:31;9.30;99.90
51655;DHT22;37732;53.106;7.030;2022-12-29T06:07:57;9.20;99.90
51655;DHT22;37732;53.106;7.030;2022-12-29T06:10:23;9.20;99.90
51655;DHT22;37732;53.106;7.030;2022-12-29T06:12:49;9.20;99.90
51655;DHT22;37732;53.106;7.030;2022-12-29T06:15:15;9.20;99.90
51655;DHT22;37732;53.106;7.030;2022-12-29T06:17:40;9.10;99.90
51655;DHT22;37732;53.106;7.030;2022-12-29T06:20:07;9.10;99.90
51655;DHT22;37732;53.106;7.030;2022-12-29T06:22:33;9.20;99.90
51655;DHT22;37732;53.106;7.030;2022-12-29T06:24:59;9.10;99.90
51655;DHT22;37732;53.106;7.030;2022-12-29T06:27:25;9.10;99.90
51655;DHT22;37732;53.106;7.030;2022-12-29T06:29:52;9.10;99.90
51655;DHT22;37732;53.106;7.030;2022-12-29T06:32:18;9.20;99.90
51655;DHT22;37732;53.106;7.030;2022-12-29T06:34:43;9.20;99.90
51655;DHT22;37732;53.106;7.030;2022-12-29T06:37:10;9.20;99.90
51655;DHT22;37732;53.106;7.030;2022-12-29T06:39:36;9.20;99.90
51655;DHT22;37732;53.106;7.030;2022-12-29T06:42:01;9.30;99.90
51655;DHT22;37732;53.106;7.030;2022-12-29T06:44:27;9.30;99.90
51655;DHT22;37732;53.106;7.030;2022-12-29T06:46:53;9.40;99.90
51655;DHT22;37732;53.106;7.030;2022-12-29T06:49:20;9.30;99.90
51655;DHT22;37732;53.106;7.030;2022-12-29T06:51:46;9.30;99.90
51655;DHT22;37732;53.106;7.030;2022-12-29T06:54:12;9.30;99.90
51655;DHT22;37732;53.106;7.030;2022-12-29T06:56:38;9.30;99.90
51655;DHT22;37732;53.106;7.030;2022-12-29T06:59:04;9.30;99.90
51655;DHT22;37732;53.106;7.030;2022-12-29T07:01:30;9.40;99.90
51655;DHT22;37732;53.106;7.030;2022-12-29T07:03:56;9.40;99.90
51655;DHT22;37732;53.106;7.030;2022-12-29T07:06:22;9.40;99.90
51655;DHT22;37732;53.106;7.030;2022-12-29T07:08:48;9.40;99.90
51655;DHT22;37732;53.106;7.030;2022-12-29T07:11:14;9.30;99.90
51655;DHT22;37732;53.106;7.030;2022-12-29T07:13:40;9.30;99.90
51655;DHT22;37732;53.106;7.030;2022-12-29T07:16:07;9.30;99.90
51655;DHT22;37732;53.106;7.030;2022-12-29T07:18:34;9.30;99.90
51655;DHT22;37732;53.106;7.030;2022-12-29T07:21:01;9.30;99.90
51655;DHT22;37732;53.106;7.030;2022-12-29T07:23:27;9.30;99.90
51655;DHT22;37732;53.106;7.030;2022-12-29T07:26:04;9.30;99.90
51655;DHT22;37732;53.106;7.030;2022-12-29T07:28:30;9.30;99.90
51655;DHT22;37732;53.106;7.030;2022-12-29T07:30:59;9.30;99.90
51655;DHT22;37732;53.106;7.030;2022-12-29T07:33:25;9.20;99.90
51655;DHT22;37732;53.106;7.030;2022-12-29T07:35:53;9.30;99.90
51655;DHT22;37732;53.106;7.030;2022-12-29T07:38:19;9.30;99.90
51655;DHT22;37732;53.106;7.030;2022-12-29T07:40:44;9.20;99.90
51655;DHT22;37732;53.106;7.030;2022-12-29T07:43:10;9.20;99.90
51655;DHT22;37732;53.106;7.030;2022-12-29T07:45:36;9.20;99.90
51655;DHT22;37732;53.106;7.030;2022-12-29T07:48:01;9.20;99.90
51655;DHT22;37732;53.106;7.030;2022-12-29T07:50:28;9.20;99.90
51655;DHT22;37732;53.106;7.030;2022-12-29T07:52:54;9.30;99.90
51655;DHT22;37732;53.106;7.030;2022-12-29T07:55:20;9.30;99.90
51655;DHT22;37732;53.106;7.030;2022-12-29T07:57:45;9.30;99.90
51655;DHT22;37732;53.106;7.030;2022-12-29T08:00:11;9.30;99.90
51655;DHT22;37732;53.106;7.030;2022-12-29T08:02:37;9.30;99.90
51655;DHT22;37732;53.106;7.030;2022-12-29T08:05:04;9.30;99.90
51655;DHT22;37732;53.106;7.030;2022-12-29T08:07:29;9.40;99.90
51655;DHT22;37732;53.106;7.030;2022-12-29T08:09:55;9.30;99.90
51655;DHT22;37732;53.106;7.030;2022-12-29T08:12:20;9.30;99.90
51655;DHT22;37732;53.106;7.030;2022-12-29T08:14:46;9.40;99.90
51655;DHT22;37732;53.106;7.030;2022-12-29T08:17:12;9.30;99.90
51655;DHT22;37732;53.106;7.030;2022-12-29T08:19:38;9.30;99.90
51655;DHT22;37732;53.106;7.030;2022-12-29T08:22:03;9.30;99.90
51655;DHT22;37732;53.106;7.030;2022-12-29T08:24:29;9.30;99.90
51655;DHT22;37732;53.106;7.030;2022-12-29T08:26:55;9.30;99.90
51655;DHT22;37732;53.106;7.030;2022-12-29T08:29:20;9.30;99.90
51655;DHT22;37732;53.106;7.030;2022-12-29T08:31:47;9.30;99.90
51655;DHT22;37732;53.106;7.030;2022-12-29T08:34:13;9.20;99.90
51655;DHT22;37732;53.106;7.030;2022-12-29T08:36:39;9.30;99.90
51655;DHT22;37732;53.106;7.030;2022-12-29T08:39:04;9.30;99.90
51655;DHT22;37732;53.106;7.030;2022-12-29T08:41:30;9.30;99.90
51655;DHT22;37732;53.106;7.030;2022-12-29T08:43:56;9.40;99.90
51655;DHT22;37732;53.106;7.030;2022-12-29T08:46:22;9.40;99.90
51655;DHT22;37732;53.106;7.030;2022-12-29T08:48:48;9.40;99.90
51655;DHT22;37732;53.106;7.030;2022-12-29T08:51:13;9.40;99.90
51655;DHT22;37732;53.106;7.030;2022-12-29T08:53:39;9.40;99.90
51655;DHT22;37732;53.106;7.030;2022-12-29T08:56:05;9.50;99.90
51655;DHT22;37732;53.106;7.030;2022-12-29T08:58:32;9.40;99.90
51655;DHT22;37732;53.106;7.030;2022-12-29T09:00:58;9.40;99.90
51655;DHT22;37732;53.106;7.030;2022-12-29T09:03:25;9.50;99.90
51655;DHT22;37732;53.106;7.030;2022-12-29T09:05:52;9.60;99.90
51655;DHT22;37732;53.106;7.030;2022-12-29T09:08:19;9.50;99.90
51655;DHT22;37732;53.106;7.030;2022-12-29T09:10:45;9.50;99.90
51655;DHT22;37732;53.106;7.030;2022-12-29T09:13:12;9.60;99.90
51655;DHT22;37732;53.106;7.030;2022-12-29T09:15:38;9.60;99.90
51655;DHT22;37732;53.106;7.030;2022-12-29T09:18:05;9.60;99.90
51655;DHT22;37732;53.106;7.030;2022-12-29T09:20:31;9.60;99.90
51655;DHT22;37732;53.106;7.030;2022-12-29T09:22:57;9.70;99.90
51655;DHT22;37732;53.106;7.030;2022-12-29T09:25:22;9.70;99.90
51655;DHT22;37732;53.106;7.030;2022-12-29T09:27:50;9.70;99.90
51655;DHT22;37732;53.106;7.030;2022-12-29T09:30:20;9.70;99.90
51655;DHT22;37732;53.106;7.030;2022-12-29T09:32:46;9.70;99.90
51655;DHT22;37732;53.106;7.030;2022-12-29T09:35:13;9.60;99.90
51655;DHT22;37732;53.106;7.030;2022-12-29T09:37:39;9.60;99.90
51655;DHT22;37732;53.106;7.030;2022-12-29T09:40:06;9.50;99.90
51655;DHT22;37732;53.106;7.030;2022-12-29T09:42:51;9.50;99.90
51655;DHT22;37732;53.106;7.030;2022-12-29T09:45:32;9.50;99.90
51655;DHT22;37732;53.106;7.030;2022-12-29T09:47:58;9.50;99.90
51655;DHT22;37732;53.106;7.030;2022-12-29T09:50:29;9.40;99.90
51655;DHT22;37732;53.106;7.030;2022-12-29T09:55:41;9.40;99.90
51655;DHT22;37732;53.106;7.030;2022-12-29T09:58:16;9.40;99.90
51655;DHT22;37732;53.106;7.030;2022-12-29T10:00:54;9.40;99.90
51655;DHT22;37732;53.106;7.030;2022-12-29T10:03:24;9.40;99.90
51655;DHT22;37732;53.106;7.030;2022-12-29T10:06:13;9.40;99.90
51655;DHT22;37732;53.106;7.030;2022-12-29T10:08:42;9.40;99.90
51655;DHT22;37732;53.106;7.030;2022-12-29T10:11:38;9.40;99.90
51655;DHT22;37732;53.106;7.030;2022-12-29T10:20:42;9.50;99.90
51655;DHT22;37732;53.106;7.030;2022-12-29T10:25:22;9.50;99.90
51655;DHT22;37732;53.106;7.030;2022-12-29T10:27:50;9.40;99.90
51655;DHT22;37732;53.106;7.030;2022-12-29T10:30:16;9.40;99.90
51655;DHT22;37732;53.106;7.030;2022-12-29T10:32:58;9.40;99.90
51655;DHT22;37732;53.106;7.030;2022-12-29T10:35:26;9.40;99.90
51655;DHT22;37732;53.106;7.030;2022-12-29T10:40:43;9.30;99.90
51655;DHT22;37732;53.106;7.030;2022-12-29T10:43:47;9.30;99.90
51655;DHT22;37732;53.106;7.030;2022-12-29T10:46:32;9.20;99.90
51655;DHT22;37732;53.106;7.030;2022-12-29T10:48:59;9.20;99.90
51655;DHT22;37732;53.106;7.030;2022-12-29T10:51:29;9.10;99.90
51655;DHT22;37732;53.106;7.030;2022-12-29T10:54:06;9.10;99.90
51655;DHT22;37732;53.106;7.030;2022-12-29T10:56:39;9.10;99.90
51655;DHT22;37732;53.106;7.030;2022-12-29T10:59:27;9.10;99.90
51655;DHT22;37732;53.106;7.030;2022-12-29T11:07:27;9.00;99.90
51655;DHT22;37732;53.106;7.030;2022-12-29T11:09:54;9.10;99.90
51655;DHT22;37732;53.106;7.030;2022-12-29T11:12:24;9.10;99.90
51655;DHT22;37732;53.106;7.030;2022-12-29T11:15:15;9.10;99.90
51655;DHT22;37732;53.106;7.030;2022-12-29T11:17:47;9.40;99.90
51655;DHT22;37732;53.106;7.030;2022-12-29T11:20:35;9.10;99.90
51655;DHT22;37732;53.106;7.030;2022-12-29T11:23:04;9.00;99.90
51655;DHT22;37732;53.106;7.030;2022-12-29T11:25:31;9.10;99.90
51655;DHT22;37732;53.106;7.030;2022-12-29T11:28:16;9.00;99.90
51655;DHT22;37732;53.106;7.030;2022-12-29T11:30:43;9.10;99.90
51655;DHT22;37732;53.106;7.030;2022-12-29T11:33:09;9.00;99.90
51655;DHT22;37732;53.106;7.030;2022-12-29T11:35:42;9.00;99.90
51655;DHT22;37732;53.106;7.030;2022-12-29T11:38:48;9.00;99.90
51655;DHT22;37732;53.106;7.030;2022-12-29T11:41:21;9.00;99.90
51655;DHT22;37732;53.106;7.030;2022-12-29T11:43:47;9.00;99.90
51655;DHT22;37732;53.106;7.030;2022-12-29T11:46:18;8.90;99.90
51655;DHT22;37732;53.106;7.030;2022-12-29T11:48:47;8.90;99.90
51655;DHT22;37732;53.106;7.030;2022-12-29T11:51:22;8.90;99.90
51655;DHT22;37732;53.106;7.030;2022-12-29T11:53:52;8.90;99.90
51655;DHT22;37732;53.106;7.030;2022-12-29T11:56:39;8.90;99.90
51655;DHT22;37732;53.106;7.030;2022-12-29T12:02:01;8.90;99.90
51655;DHT22;37732;53.106;7.030;2022-12-29T12:04:36;8.90;99.90
51655;DHT22;37732;53.106;7.030;2022-12-29T12:07:15;8.90;99.90
51655;DHT22;37732;53.106;7.030;2022-12-29T12:09:47;8.90;99.90
51655;DHT22;37732;53.106;7.030;2022-12-29T12:14:58;8.80;99.90
51655;DHT22;37732;53.106;7.030;2022-12-29T12:17:53;8.80;99.90
51655;DHT22;37732;53.106;7.030;2022-12-29T12:25:55;9.00;99.90
51655;DHT22;37732;53.106;7.030;2022-12-29T12:28:52;9.00;99.90
51655;DHT22;37732;53.106;7.030;2022-12-29T12:34:31;9.10;99.90
51655;DHT22;37732;53.106;7.030;2022-12-29T12:51:20;9.70;99.90
51655;DHT22;37732;53.106;7.030;2022-12-29T12:59:21;9.60;99.90
51655;DHT22;37732;53.106;7.030;2022-12-29T13:04:32;9.50;99.90
51655;DHT22;37732;53.106;7.030;2022-12-29T13:18:45;9.40;99.90
51655;DHT22;37732;53.106;7.030;2022-12-29T13:26:52;9.30;99.90
51655;DHT22;37732;53.106;7.030;2022-12-29T13:32:39;9.40;99.90
51655;DHT22;37732;53.106;7.030;2022-12-29T13:38:19;9.40;99.90
51655;DHT22;37732;53.106;7.030;2022-12-29T13:40:50;9.40;99.90
51655;DHT22;37732;53.106;7.030;2022-12-29T13:43:19;9.50;99.90
51655;DHT22;37732;53.106;7.030;2022-12-29T13:45:58;9.40;99.90
51655;DHT22;37732;53.106;7.030;2022-12-29T13:48:36;9.50;99.90
51655;DHT22;37732;53.106;7.030;2022-12-29T13:51:03;9.50;99.90
51655;DHT22;37732;53.106;7.030;2022-12-29T13:53:54;9.50;99.90
51655;DHT22;37732;53.106;7.030;2022-12-29T13:59:45;9.50;99.90
51655;DHT22;37732;53.106;7.030;2022-12-29T14:02:27;9.50;99.90
51655;DHT22;37732;53.106;7.030;2022-12-29T14:05:00;9.50;99.90
51655;DHT22;37732;53.106;7.030;2022-12-29T14:07:27;9.50;99.90
51655;DHT22;37732;53.106;7.030;2022-12-29T14:09:55;9.50;99.90
51655;DHT22;37732;53.106;7.030;2022-12-29T14:12:38;9.60;99.90
51655;DHT22;37732;53.106;7.030;2022-12-29T14:17:37;9.50;99.90
51655;DHT22;37732;53.106;7.030;2022-12-29T14:20:06;9.40;99.90
51655;DHT22;37732;53.106;7.030;2022-12-29T14:22:56;9.40;99.90
51655;DHT22;37732;53.106;7.030;2022-12-29T14:25:54;9.30;99.90
51655;DHT22;37732;53.106;7.030;2022-12-29T14:28:45;9.20;99.90
51655;DHT22;37732;53.106;7.030;2022-12-29T14:33:41;9.10;99.90
51655;DHT22;37732;53.106;7.030;2022-12-29T14:36:37;9.10;99.90
51655;DHT22;37732;53.106;7.030;2022-12-29T14:42:00;9.00;99.90
51655;DHT22;37732;53.106;7.030;2022-12-29T14:44:26;9.00;99.90
51655;DHT22;37732;53.106;7.030;2022-12-29T14:46:57;8.90;99.90
51655;DHT22;37732;53.106;7.030;2022-12-29T14:49:27;8.90;99.90
51655;DHT22;37732;53.106;7.030;2022-12-29T14:52:26;8.90;99.90
51655;DHT22;37732;53.106;7.030;2022-12-29T14:54:57;8.80;99.90
51655;DHT22;37732;53.106;7.030;2022-12-29T14:57:40;8.80;99.90
51655;DHT22;37732;53.106;7.030;2022-12-29T15:00:27;8.80;99.90
51655;DHT22;37732;53.106;7.030;2022-12-29T15:03:10;8.80;99.90
51655;DHT22;37732;53.106;7.030;2022-12-29T15:08:04;8.80;99.90
51655;DHT22;37732;53.106;7.030;2022-12-29T15:10:54;8.80;99.90
51655;DHT22;37732;53.106;7.030;2022-12-29T15:13:33;8.70;99.90
51655;DHT22;37732;53.106;7.030;2022-12-29T15:15:59;8.70;99.90
51655;DHT22;37732;53.106;7.030;2022-12-29T15:18:29;8.70;99.90
51655;DHT22;37732;53.106;7.030;2022-12-29T15:21:06;8.60;99.90
51655;DHT22;37732;53.106;7.030;2022-12-29T15:23:34;8.60;99.90
51655;DHT22;37732;53.106;7.030;2022-12-29T15:26:07;8.60;99.90
51655;DHT22;37732;53.106;7.030;2022-12-29T15:28:52;8.50;99.90
51655;DHT22;37732;53.106;7.030;2022-12-29T15:31:19;8.50;99.90
51655;DHT22;37732;53.106;7.030;2022-12-29T15:33:47;8.40;99.90
51655;DHT22;37732;53.106;7.030;2022-12-29T15:36:21;8.40;99.90
51655;DHT22;37732;53.106;7.030;2022-12-29T15:38:51;8.40;99.90
51655;DHT22;37732;53.106;7.030;2022-12-29T15:46:29;8.40;99.90
51655;DHT22;37732;53.106;7.030;2022-12-29T15:48:55;8.30;99.90
51655;DHT22;37732;53.106;7.030;2022-12-29T15:51:35;8.30;99.90
51655;DHT22;37732;53.106;7.030;2022-12-29T15:54:01;8.30;99.90
51655;DHT22;37732;53.106;7.030;2022-12-29T15:56:34;8.30;99.90
51655;DHT22;37732;53.106;7.030;2022-12-29T15:59:00;8.30;99.90
51655;DHT22;37732;53.106;7.030;2022-12-29T16:01:30;8.30;99.90
51655;DHT22;37732;53.106;7.030;2022-12-29T16:03:58;8.30;99.90
51655;DHT22;37732;53.106;7.030;2022-12-29T16:06:32;8.30;99.90
51655;DHT22;37732;53.106;7.030;2022-12-29T16:09:05;8.30;99.90
51655;DHT22;37732;53.106;7.030;2022-12-29T16:11:40;8.30;99.90
51655;DHT22;37732;53.106;7.030;2022-12-29T16:14:09;8.30;99.90
51655;DHT22;37732;53.106;7.030;2022-12-29T16:16:39;8.20;99.90
51655;DHT22;37732;53.106;7.030;2022-12-29T16:21:44;8.20;99.90
51655;DHT22;37732;53.106;7.030;2022-12-29T16:24:14;8.20;99.90
51655;DHT22;37732;53.106;7.030;2022-12-29T16:26:50;8.20;99.90
51655;DHT22;37732;53.106;7.030;2022-12-29T16:29:17;8.20;99.90
51655;DHT22;37732;53.106;7.030;2022-12-29T16:31:55;8.10;99.90
51655;DHT22;37732;53.106;7.030;2022-12-29T16:37:31;8.10;99.90
51655;DHT22;37732;53.106;7.030;2022-12-29T16:40:28;8.10;99.90
51655;DHT22;37732;53.106;7.030;2022-12-29T16:43:00;8.00;99.90
51655;DHT22;37732;53.106;7.030;2022-12-29T16:50:41;8.10;99.90
51655;DHT22;37732;53.106;7.030;2022-12-29T16:53:37;8.10;99.90
51655;DHT22;37732;53.106;7.030;2022-12-29T16:56:15;8.20;99.90
51655;DHT22;37732;53.106;7.030;2022-12-29T16:58:50;8.20;99.90
51655;DHT22;37732;53.106;7.030;2022-12-29T17:01:20;8.20;99.90
51655;DHT22;37732;53.106;7.030;2022-12-29T17:03:53;8.20;99.90
51655;DHT22;37732;53.106;7.030;2022-12-29T17:06:22;8.20;99.90
51655;DHT22;37732;53.106;7.030;2022-12-29T17:08:48;8.20;99.90
51655;DHT22;37732;53.106;7.030;2022-12-29T17:11:23;8.20;99.90
51655;DHT22;37732;53.106;7.030;2022-12-29T17:16:43;8.20;99.90
51655;DHT22;37732;53.106;7.030;2022-12-29T17:19:15;8.10;99.90
51655;DHT22;37732;53.106;7.030;2022-12-29T17:21:43;8.10;99.90
51655;DHT22;37732;53.106;7.030;2022-12-29T17:24:17;8.10;99.90
51655;DHT22;37732;53.106;7.030;2022-12-29T17:26:56;8.10;99.90
51655;DHT22;37732;53.106;7.030;2022-12-29T17:31:51;7.90;99.90
51655;DHT22;37732;53.106;7.030;2022-12-29T17:34:19;7.90;99.90
51655;DHT22;37732;53.106;7.030;2022-12-29T17:36:44;7.90;99.90
51655;DHT22;37732;53.106;7.030;2022-12-29T17:39:10;7.90;99.90
51655;DHT22;37732;53.106;7.030;2022-12-29T17:41:36;7.80;99.90
51655;DHT22;37732;53.106;7.030;2022-12-29T17:44:04;7.80;99.90
51655;DHT22;37732;53.106;7.030;2022-12-29T17:46:30;7.80;99.90
51655;DHT22;37732;53.106;7.030;2022-12-29T17:48:56;7.70;99.90
51655;DHT22;37732;53.106;7.030;2022-12-29T17:51:22;7.60;99.90
51655;DHT22;37732;53.106;7.030;2022-12-29T17:53:48;7.60;99.90
51655;DHT22;37732;53.106;7.030;2022-12-29T17:56:14;7.60;99.90
51655;DHT22;37732;53.106;7.030;2022-12-29T17:58:40;7.60;99.90
51655;DHT22;37732;53.106;7.030;2022-12-29T18:01:08;7.60;99.90
51655;DHT22;37732;53.106;7.030;2022-12-29T18:03:36;7.60;99.90
51655;DHT22;37732;53.106;7.030;2022-12-29T18:06:03;7.60;99.90
51655;DHT22;37732;53.106;7.030;2022-12-29T18:08:31;7.60;99.90
51655;DHT22;37732;53.106;7.030;2022-12-29T18:10:59;7.50;99.90
51655;DHT22;37732;53.106;7.030;2022-12-29T18:13:27;7.50;99.90
51655;DHT22;37732;53.106;7.030;2022-12-29T18:15:54;7.50;99.90
51655;DHT22;37732;53.106;7.030;2022-12-29T18:18:22;7.50;99.90
51655;DHT22;37732;53.106;7.030;2022-12-29T18:20:49;7.50;99.90
51655;DHT22;37732;53.106;7.030;2022-12-29T18:23:25;7.40;99.90
51655;DHT22;37732;53.106;7.030;2022-12-29T18:26:00;7.40;99.90
51655;DHT22;37732;53.106;7.030;2022-12-29T18:28:28;7.40;99.90
51655;DHT22;37732;53.106;7.030;2022-12-29T18:30:59;7.30;99.90
51655;DHT22;37732;53.106;7.030;2022-12-29T18:33:25;7.30;99.90
51655;DHT22;37732;53.106;7.030;2022-12-29T18:35:58;7.30;99.90
51655;DHT22;37732;53.106;7.030;2022-12-29T18:38:24;7.30;99.90
51655;DHT22;37732;53.106;7.030;2022-12-29T18:40:50;7.30;99.90
51655;DHT22;37732;53.106;7.030;2022-12-29T18:43:17;7.30;99.90
51655;DHT22;37732;53.106;7.030;2022-12-29T18:45:43;7.30;99.90
51655;DHT22;37732;53.106;7.030;2022-12-29T18:48:13;7.40;99.90